sensor_id;sensor_type;location;lat;lon;timestamp;pressure;altitude;pressure_sealevel;temperature;humidity
58471;BME280;44258;51.288;12.068;2023-08-24T00:00:45;100764.84;;;19.87;68.94
58471;BME280;44258;51.288;12.068;2023-08-24T00:03:33;100761.22;;;19.77;69.25
58471;BME280;44258;51.288;12.068;2023-08-24T00:06:20;100756.47;;;19.79;68.70
58471;BME280;44258;51.288;12.068;2023-08-24T00:09:09;100753.16;;;19.76;69.09
58471;BME280;44258;51.288;12.068;2023-08-24T00:11:55;100742.13;;;19.77;69.14
58471;BME280;44258;51.288;12.068;2023-08-24T00:14:42;100747.34;;;19.69;68.87
58471;BME280;44258;51.288;12.068;2023-08-24T00:17:34;100746.34;;;19.70;69.44
58471;BME280;44258;51.288;12.068;2023-08-24T00:20:23;100750.22;;;19.67;69.28
58471;BME280;44258;51.288;12.068;2023-08-24T00:23:10;100746.63;;;19.67;69.34
58471;BME280;44258;51.288;12.068;2023-08-24T00:25:57;100750.63;;;19.42;70.16
58471;BME280;44258;51.288;12.068;2023-08-24T00:28:44;100753.16;;;19.33;70.12
58471;BME280;44258;51.288;12.068;2023-08-24T00:31:31;100758.94;;;19.40;70.41
58471;BME280;44258;51.288;12.068;2023-08-24T00:34:18;100753.22;;;19.43;70.22
58471;BME280;44258;51.288;12.068;2023-08-24T00:37:06;100763.28;;;19.43;70.04
58471;BME280;44258;51.288;12.068;2023-08-24T00:39:53;100754.69;;;19.47;70.31
58471;BME280;44258;51.288;12.068;2023-08-24T00:42:41;100762.19;;;19.55;69.85
58471;BME280;44258;51.288;12.068;2023-08-24T00:45:30;100755.72;;;19.56;69.62
58471;BME280;44258;51.288;12.068;2023-08-24T00:48:18;100768.50;;;19.56;69.93
58471;BME280;44258;51.288;12.068;2023-08-24T00:51:06;100751.53;;;19.52;69.52
58471;BME280;44258;51.288;12.068;2023-08-24T00:53:54;100759.88;;;19.50;69.80
58471;BME280;44258;51.288;12.068;2023-08-24T00:56:43;100745.22;;;19.51;70.00
58471;BME280;44258;51.288;12.068;2023-08-24T00:59:30;100746.25;;;19.50;69.86
58471;BME280;44258;51.288;12.068;2023-08-24T01:02:18;100750.44;;;19.54;69.54
58471;BME280;44258;51.288;12.068;2023-08-24T01:05:06;100744.25;;;19.52;70.06
58471;BME280;44258;51.288;12.068;2023-08-24T01:07:54;100750.38;;;19.45;69.60
58471;BME280;44258;51.288;12.068;2023-08-24T01:10:47;100752.69;;;19.28;70.83
58471;BME280;44258;51.288;12.068;2023-08-24T01:13:39;100745.16;;;19.21;70.55
58471;BME280;44258;51.288;12.068;2023-08-24T01:16:29;100750.81;;;19.29;70.19
58471;BME280;44258;51.288;12.068;2023-08-24T01:19:27;100746.91;;;19.22;70.68
58471;BME280;44258;51.288;12.068;2023-08-24T01:22:32;100751.56;;;19.31;70.36
58471;BME280;44258;51.288;12.068;2023-08-24T01:25:24;100749.69;;;19.31;69.88
58471;BME280;44258;51.288;12.068;2023-08-24T01:28:22;100756.16;;;19.30;70.27
58471;BME280;44258;51.288;12.068;2023-08-24T01:31:09;100758.88;;;19.30;69.68
58471;BME280;44258;51.288;12.068;2023-08-24T01:33:56;100754.16;;;19.32;70.06
58471;BME280;44258;51.288;12.068;2023-08-24T01:36:44;100753.31;;;19.32;70.43
58471;BME280;44258;51.288;12.068;2023-08-24T01:39:42;100754.34;;;19.20;71.32
58471;BME280;44258;51.288;12.068;2023-08-24T01:42:31;100749.63;;;19.22;70.91
58471;BME280;44258;51.288;12.068;2023-08-24T01:45:24;100749.72;;;18.99;71.74
58471;BME280;44258;51.288;12.068;2023-08-24T01:48:14;100750.94;;;19.06;71.58
58471;BME280;44258;51.288;12.068;2023-08-24T01:51:02;100749.81;;;19.09;71.61
58471;BME280;44258;51.288;12.068;2023-08-24T01:53:52;100740.38;;;19.13;71.25
58471;BME280;44258;51.288;12.068;2023-08-24T01:56:41;100735.78;;;19.13;71.25
58471;BME280;44258;51.288;12.068;2023-08-24T01:59:29;100740.84;;;19.18;70.54
58471;BME280;44258;51.288;12.068;2023-08-24T02:02:20;100741.59;;;19.20;70.29
58471;BME280;44258;51.288;12.068;2023-08-24T02:05:07;100742.19;;;19.24;70.50
58471;BME280;44258;51.288;12.068;2023-08-24T02:07:55;100737.31;;;19.27;69.91
58471;BME280;44258;51.288;12.068;2023-08-24T02:10:42;100735.13;;;19.21;70.64
58471;BME280;44258;51.288;12.068;2023-08-24T02:13:29;100734.00;;;19.24;70.58
58471;BME280;44258;51.288;12.068;2023-08-24T02:16:17;100733.53;;;19.19;70.46
58471;BME280;44258;51.288;12.068;2023-08-24T02:19:05;100727.88;;;19.10;70.67
58471;BME280;44258;51.288;12.068;2023-08-24T02:21:52;100732.81;;;19.17;70.00
58471;BME280;44258;51.288;12.068;2023-08-24T02:24:39;100733.19;;;19.12;70.02
58471;BME280;44258;51.288;12.068;2023-08-24T02:27:26;100727.38;;;19.05;70.26
58471;BME280;44258;51.288;12.068;2023-08-24T02:30:14;100726.53;;;19.05;70.41
58471;BME280;44258;51.288;12.068;2023-08-24T02:33:01;100734.59;;;19.06;70.67
58471;BME280;44258;51.288;12.068;2023-08-24T02:35:49;100727.16;;;19.08;70.41
58471;BME280;44258;51.288;12.068;2023-08-24T02:38:36;100722.53;;;19.09;70.78
58471;BME280;44258;51.288;12.068;2023-08-24T02:41:23;100721.41;;;19.11;70.86
58471;BME280;44258;51.288;12.068;2023-08-24T02:44:10;100714.84;;;19.35;70.68
58471;BME280;44258;51.288;12.068;2023-08-24T02:46:57;100718.63;;;19.23;69.69
58471;BME280;44258;51.288;12.068;2023-08-24T02:49:44;100721.22;;;19.03;70.35
58471;BME280;44258;51.288;12.068;2023-08-24T02:52:33;100715.47;;;18.85;70.89
58471;BME280;44258;51.288;12.068;2023-08-24T02:55:20;100714.25;;;18.78;71.82
58471;BME280;44258;51.288;12.068;2023-08-24T02:58:07;100723.44;;;18.66;71.65
58471;BME280;44258;51.288;12.068;2023-08-24T03:00:54;100718.28;;;18.51;72.03
58471;BME280;44258;51.288;12.068;2023-08-24T03:03:41;100713.03;;;18.39;72.53
58471;BME280;44258;51.288;12.068;2023-08-24T03:06:28;100715.34;;;18.43;71.94
58471;BME280;44258;51.288;12.068;2023-08-24T03:09:17;100720.53;;;18.46;72.44
58471;BME280;44258;51.288;12.068;2023-08-24T03:12:04;100724.09;;;18.58;71.72
58471;BME280;44258;51.288;12.068;2023-08-24T03:14:51;100724.09;;;18.58;71.81
58471;BME280;44258;51.288;12.068;2023-08-24T03:17:41;100716.94;;;18.57;71.76
58471;BME280;44258;51.288;12.068;2023-08-24T03:20:28;100715.41;;;18.64;71.48
58471;BME280;44258;51.288;12.068;2023-08-24T03:23:15;100708.75;;;18.57;71.62
58471;BME280;44258;51.288;12.068;2023-08-24T03:26:03;100703.22;;;18.47;72.01
58471;BME280;44258;51.288;12.068;2023-08-24T03:28:50;100699.00;;;18.43;72.23
58471;BME280;44258;51.288;12.068;2023-08-24T03:31:37;100697.16;;;18.44;72.20
58471;BME280;44258;51.288;12.068;2023-08-24T03:34:24;100709.03;;;18.43;72.05
58471;BME280;44258;51.288;12.068;2023-08-24T03:37:12;100697.88;;;18.46;71.83
58471;BME280;44258;51.288;12.068;2023-08-24T03:39:59;100689.25;;;18.41;71.78
58471;BME280;44258;51.288;12.068;2023-08-24T03:42:52;100692.00;;;18.29;72.23
58471;BME280;44258;51.288;12.068;2023-08-24T03:45:39;100682.25;;;18.16;73.34
58471;BME280;44258;51.288;12.068;2023-08-24T03:48:30;100689.16;;;18.20;72.71
58471;BME280;44258;51.288;12.068;2023-08-24T03:51:16;100692.09;;;18.39;72.41
58471;BME280;44258;51.288;12.068;2023-08-24T03:54:04;100700.03;;;18.31;71.87
58471;BME280;44258;51.288;12.068;2023-08-24T03:56:51;100691.13;;;18.29;71.58
58471;BME280;44258;51.288;12.068;2023-08-24T03:59:40;100695.56;;;18.30;71.18
58471;BME280;44258;51.288;12.068;2023-08-24T04:02:27;100692.00;;;18.29;71.49
58471;BME280;44258;51.288;12.068;2023-08-24T04:05:14;100688.81;;;18.13;72.21
58471;BME280;44258;51.288;12.068;2023-08-24T04:08:01;100699.97;;;18.10;72.33
58471;BME280;44258;51.288;12.068;2023-08-24T04:10:48;100703.91;;;18.06;72.71
58471;BME280;44258;51.288;12.068;2023-08-24T04:13:35;100705.53;;;18.08;72.60
58471;BME280;44258;51.288;12.068;2023-08-24T04:16:23;100699.56;;;18.14;72.63
58471;BME280;44258;51.288;12.068;2023-08-24T04:19:11;100704.63;;;18.19;72.00
58471;BME280;44258;51.288;12.068;2023-08-24T04:21:57;100699.69;;;18.24;72.11
58471;BME280;44258;51.288;12.068;2023-08-24T04:24:44;100710.75;;;18.44;72.32
58471;BME280;44258;51.288;12.068;2023-08-24T04:27:31;100715.84;;;18.37;71.62
58471;BME280;44258;51.288;12.068;2023-08-24T04:30:19;100716.09;;;18.34;71.38
58471;BME280;44258;51.288;12.068;2023-08-24T04:33:08;100713.78;;;18.29;70.82
58471;BME280;44258;51.288;12.068;2023-08-24T04:35:55;100716.09;;;18.34;71.19
58471;BME280;44258;51.288;12.068;2023-08-24T04:38:42;100717.00;;;18.34;70.61
58471;BME280;44258;51.288;12.068;2023-08-24T04:41:30;100715.84;;;18.37;70.52
58471;BME280;44258;51.288;12.068;2023-08-24T04:44:17;100711.78;;;18.31;70.98
58471;BME280;44258;51.288;12.068;2023-08-24T04:47:05;100722.78;;;18.30;70.57
58471;BME280;44258;51.288;12.068;2023-08-24T04:49:54;100722.94;;;18.28;71.05
58471;BME280;44258;51.288;12.068;2023-08-24T04:52:41;100722.78;;;18.30;71.94
58471;BME280;44258;51.288;12.068;2023-08-24T04:55:29;100717.97;;;18.33;72.46
58471;BME280;44258;51.288;12.068;2023-08-24T04:58:16;100708.81;;;18.23;72.67
58471;BME280;44258;51.288;12.068;2023-08-24T05:01:03;100719.34;;;18.28;72.98
58471;BME280;44258;51.288;12.068;2023-08-24T05:03:50;100713.31;;;18.24;72.61
58471;BME280;44258;51.288;12.068;2023-08-24T05:06:39;100718.09;;;18.32;72.73
58471;BME280;44258;51.288;12.068;2023-08-24T05:09:26;100718.19;;;18.42;72.58
58471;BME280;44258;51.288;12.068;2023-08-24T05:12:12;100716.63;;;18.71;72.50
58471;BME280;44258;51.288;12.068;2023-08-24T05:14:59;100713.25;;;18.79;71.68
58471;BME280;44258;51.288;12.068;2023-08-24T05:17:46;100713.38;;;18.78;71.69
58471;BME280;44258;51.288;12.068;2023-08-24T05:20:33;100708.53;;;18.81;71.44
58471;BME280;44258;51.288;12.068;2023-08-24T05:23:21;100709.13;;;18.85;71.74
58471;BME280;44258;51.288;12.068;2023-08-24T05:26:08;100711.84;;;18.85;71.55
58471;BME280;44258;51.288;12.068;2023-08-24T05:28:55;100706.69;;;18.82;71.31
58471;BME280;44258;51.288;12.068;2023-08-24T05:31:43;100704.41;;;18.87;71.80
58471;BME280;44258;51.288;12.068;2023-08-24T05:34:30;100708.09;;;18.97;71.33
58471;BME280;44258;51.288;12.068;2023-08-24T05:37:17;100705.59;;;19.05;71.18
58471;BME280;44258;51.288;12.068;2023-08-24T05:40:07;100702.13;;;19.03;70.90
58471;BME280;44258;51.288;12.068;2023-08-24T05:42:54;100706.31;;;19.07;71.62
58471;BME280;44258;51.288;12.068;2023-08-24T05:45:41;100707.13;;;19.19;71.34
58471;BME280;44258;51.288;12.068;2023-08-24T05:48:30;100709.00;;;19.19;71.38
58471;BME280;44258;51.288;12.068;2023-08-24T05:51:17;100705.25;;;19.41;70.99
58471;BME280;44258;51.288;12.068;2023-08-24T05:54:04;100705.88;;;19.44;70.24
58471;BME280;44258;51.288;12.068;2023-08-24T05:56:53;100700.13;;;19.47;70.23
58471;BME280;44258;51.288;12.068;2023-08-24T05:59:40;100701.91;;;19.58;69.67
58471;BME280;44258;51.288;12.068;2023-08-24T06:02:29;100703.09;;;19.65;69.46
58471;BME280;44258;51.288;12.068;2023-08-24T06:05:16;100709.72;;;19.72;69.77
58471;BME280;44258;51.288;12.068;2023-08-24T06:08:04;100702.34;;;19.84;69.64
58471;BME280;44258;51.288;12.068;2023-08-24T06:10:51;100708.16;;;20.01;69.53
58471;BME280;44258;51.288;12.068;2023-08-24T06:13:40;100697.72;;;20.16;69.46
58471;BME280;44258;51.288;12.068;2023-08-24T06:16:27;100691.44;;;20.34;69.28
58471;BME280;44258;51.288;12.068;2023-08-24T06:19:14;100687.63;;;20.57;67.96
58471;BME280;44258;51.288;12.068;2023-08-24T06:22:01;100685.75;;;20.67;67.98
58471;BME280;44258;51.288;12.068;2023-08-24T06:24:48;100672.78;;;20.98;67.23
58471;BME280;44258;51.288;12.068;2023-08-24T06:27:35;100675.13;;;20.93;66.51
58471;BME280;44258;51.288;12.068;2023-08-24T06:30:23;100670.88;;;20.30;69.43
58471;BME280;44258;51.288;12.068;2023-08-24T06:33:11;100670.22;;;20.77;67.94
58471;BME280;44258;51.288;12.068;2023-08-24T06:36:01;100668.19;;;21.28;66.49
58471;BME280;44258;51.288;12.068;2023-08-24T06:38:49;100661.44;;;21.60;66.49
58471;BME280;44258;51.288;12.068;2023-08-24T06:41:36;100665.47;;;21.93;65.46
58471;BME280;44258;51.288;12.068;2023-08-24T06:44:23;100673.78;;;22.11;65.48
58471;BME280;44258;51.288;12.068;2023-08-24T06:47:11;100677.66;;;22.36;64.74
58471;BME280;44258;51.288;12.068;2023-08-24T06:49:58;100684.94;;;22.63;63.95
58471;BME280;44258;51.288;12.068;2023-08-24T06:52:45;100682.22;;;22.81;64.01
58471;BME280;44258;51.288;12.068;2023-08-24T06:55:32;100685.31;;;23.04;62.77
58471;BME280;44258;51.288;12.068;2023-08-24T06:58:20;100689.44;;;23.26;63.04
58471;BME280;44258;51.288;12.068;2023-08-24T07:01:07;100693.84;;;23.37;61.45
58471;BME280;44258;51.288;12.068;2023-08-24T07:03:55;100693.06;;;23.27;61.65
58471;BME280;44258;51.288;12.068;2023-08-24T07:06:42;100704.41;;;23.32;61.15
58471;BME280;44258;51.288;12.068;2023-08-24T07:09:29;100703.91;;;23.55;60.54
58471;BME280;44258;51.288;12.068;2023-08-24T07:12:16;100698.47;;;23.63;60.42
58471;BME280;44258;51.288;12.068;2023-08-24T07:15:05;100703.19;;;23.79;60.51
58471;BME280;44258;51.288;12.068;2023-08-24T07:17:52;100703.81;;;23.99;60.53
58471;BME280;44258;51.288;12.068;2023-08-24T07:20:40;100708.38;;;24.16;59.99
58471;BME280;44258;51.288;12.068;2023-08-24T07:23:27;100707.72;;;24.30;59.80
58471;BME280;44258;51.288;12.068;2023-08-24T07:26:15;100700.94;;;24.59;59.86
58471;BME280;44258;51.288;12.068;2023-08-24T07:29:02;100698.22;;;24.67;58.50
58471;BME280;44258;51.288;12.068;2023-08-24T07:31:52;100699.97;;;24.85;59.36
58471;BME280;44258;51.288;12.068;2023-08-24T07:34:39;100696.22;;;25.10;57.61
58471;BME280;44258;51.288;12.068;2023-08-24T07:37:27;100704.44;;;25.19;58.20
58471;BME280;44258;51.288;12.068;2023-08-24T07:40:14;100695.13;;;25.36;56.82
58471;BME280;44258;51.288;12.068;2023-08-24T07:43:01;100683.13;;;25.04;57.17
58471;BME280;44258;51.288;12.068;2023-08-24T07:45:49;100674.88;;;25.37;57.49
58471;BME280;44258;51.288;12.068;2023-08-24T07:48:37;100654.81;;;25.68;57.09
58471;BME280;44258;51.288;12.068;2023-08-24T07:51:24;100654.59;;;25.86;56.30
58471;BME280;44258;51.288;12.068;2023-08-24T07:54:13;100661.09;;;25.93;54.83
58471;BME280;44258;51.288;12.068;2023-08-24T07:57:01;100661.53;;;26.13;55.11
58471;BME280;44258;51.288;12.068;2023-08-24T07:59:48;100651.03;;;26.17;53.61
58471;BME280;44258;51.288;12.068;2023-08-24T08:02:35;100650.69;;;26.11;54.40
58471;BME280;44258;51.288;12.068;2023-08-24T08:05:23;100657.84;;;26.29;53.00
58471;BME280;44258;51.288;12.068;2023-08-24T08:08:10;100654.97;;;26.22;52.14
58471;BME280;44258;51.288;12.068;2023-08-24T08:11:01;100650.47;;;26.21;52.59
58471;BME280;44258;51.288;12.068;2023-08-24T08:13:49;100646.69;;;26.22;54.04
58471;BME280;44258;51.288;12.068;2023-08-24T08:16:36;100651.13;;;26.63;52.78
58471;BME280;44258;51.288;12.068;2023-08-24T08:19:24;100640.72;;;26.88;51.88
58471;BME280;44258;51.288;12.068;2023-08-24T08:22:13;100648.22;;;27.17;51.13
58471;BME280;44258;51.288;12.068;2023-08-24T08:25:00;100642.44;;;26.89;51.47
58471;BME280;44258;51.288;12.068;2023-08-24T08:27:50;100652.59;;;27.12;50.92
58471;BME280;44258;51.288;12.068;2023-08-24T08:30:37;100645.88;;;27.29;51.63
58471;BME280;44258;51.288;12.068;2023-08-24T08:33:24;100647.03;;;27.35;52.19
58471;BME280;44258;51.288;12.068;2023-08-24T08:36:11;100644.38;;;27.41;52.54
58471;BME280;44258;51.288;12.068;2023-08-24T08:38:58;100637.25;;;27.32;51.97
58471;BME280;44258;51.288;12.068;2023-08-24T08:41:45;100636.72;;;27.14;52.37
58471;BME280;44258;51.288;12.068;2023-08-24T08:44:34;100630.03;;;27.08;53.42
58471;BME280;44258;51.288;12.068;2023-08-24T08:47:21;100631.38;;;26.89;54.04
58471;BME280;44258;51.288;12.068;2023-08-24T08:50:09;100628.41;;;26.76;55.95
58471;BME280;44258;51.288;12.068;2023-08-24T08:52:57;100630.34;;;26.90;53.51
58471;BME280;44258;51.288;12.068;2023-08-24T08:55:46;100636.28;;;27.02;53.94
58471;BME280;44258;51.288;12.068;2023-08-24T08:58:34;100631.94;;;27.07;54.95
58471;BME280;44258;51.288;12.068;2023-08-24T09:01:25;100633.19;;;27.20;53.54
58471;BME280;44258;51.288;12.068;2023-08-24T09:04:12;100625.31;;;27.32;54.31
58471;BME280;44258;51.288;12.068;2023-08-24T09:06:59;100631.72;;;27.32;55.04
58471;BME280;44258;51.288;12.068;2023-08-24T09:09:49;100622.47;;;27.40;54.78
58471;BME280;44258;51.288;12.068;2023-08-24T09:12:36;100621.44;;;27.26;54.47
58471;BME280;44258;51.288;12.068;2023-08-24T09:15:24;100624.28;;;27.33;54.67
58471;BME280;44258;51.288;12.068;2023-08-24T09:18:13;100623.78;;;27.29;53.88
58471;BME280;44258;51.288;12.068;2023-08-24T09:21:07;100618.38;;;27.36;54.24
58471;BME280;44258;51.288;12.068;2023-08-24T09:23:55;100618.00;;;27.39;53.42
58471;BME280;44258;51.288;12.068;2023-08-24T09:26:42;100613.91;;;27.49;52.43
58471;BME280;44258;51.288;12.068;2023-08-24T09:29:36;100605.34;;;27.44;51.82
58471;BME280;44258;51.288;12.068;2023-08-24T09:32:24;100610.47;;;27.77;51.31
58471;BME280;44258;51.288;12.068;2023-08-24T09:35:15;100600.84;;;27.43;52.20
58471;BME280;44258;51.288;12.068;2023-08-24T09:38:15;100602.47;;;27.38;51.30
58471;BME280;44258;51.288;12.068;2023-08-24T09:41:03;100599.63;;;27.61;51.71
58471;BME280;44258;51.288;12.068;2023-08-24T09:43:49;100598.94;;;27.74;50.75
58471;BME280;44258;51.288;12.068;2023-08-24T09:46:36;100593.81;;;27.85;50.63
58471;BME280;44258;51.288;12.068;2023-08-24T09:49:24;100581.13;;;27.91;50.11
58471;BME280;44258;51.288;12.068;2023-08-24T09:52:14;100576.56;;;27.83;48.74
58471;BME280;44258;51.288;12.068;2023-08-24T09:55:03;100572.06;;;27.67;48.86
58471;BME280;44258;51.288;12.068;2023-08-24T09:57:53;100558.31;;;27.74;50.21
58471;BME280;44258;51.288;12.068;2023-08-24T10:00:45;100555.19;;;27.77;49.03
58471;BME280;44258;51.288;12.068;2023-08-24T10:03:33;100542.44;;;27.91;50.81
58471;BME280;44258;51.288;12.068;2023-08-24T10:06:23;100535.94;;;27.84;50.65
58471;BME280;44258;51.288;12.068;2023-08-24T10:09:19;100518.19;;;27.78;51.02
58471;BME280;44258;51.288;12.068;2023-08-24T10:12:08;100526.41;;;27.86;50.47
58471;BME280;44258;51.288;12.068;2023-08-24T10:14:59;100530.03;;;27.72;49.57
58471;BME280;44258;51.288;12.068;2023-08-24T10:17:48;100523.38;;;27.81;50.45
58471;BME280;44258;51.288;12.068;2023-08-24T10:20:36;100511.38;;;27.89;49.71
58471;BME280;44258;51.288;12.068;2023-08-24T10:23:24;100507.94;;;27.87;50.39
58471;BME280;44258;51.288;12.068;2023-08-24T10:26:16;100499.38;;;27.82;50.24
58471;BME280;44258;51.288;12.068;2023-08-24T10:29:03;100501.03;;;27.98;50.80
58471;BME280;44258;51.288;12.068;2023-08-24T10:31:52;100483.25;;;27.85;49.40
58471;BME280;44258;51.288;12.068;2023-08-24T10:34:39;100480.09;;;28.10;49.83
58471;BME280;44258;51.288;12.068;2023-08-24T10:37:27;100479.56;;;28.21;48.99
58471;BME280;44258;51.288;12.068;2023-08-24T10:40:14;100468.25;;;27.95;49.54
58471;BME280;44258;51.288;12.068;2023-08-24T10:43:18;100470.19;;;26.68;51.33
58471;BME280;44258;51.288;12.068;2023-08-24T10:46:11;100465.47;;;27.22;51.11
58471;BME280;44258;51.288;12.068;2023-08-24T10:48:59;100462.88;;;27.20;51.63
58471;BME280;44258;51.288;12.068;2023-08-24T10:51:46;100457.28;;;27.28;52.38
58471;BME280;44258;51.288;12.068;2023-08-24T10:54:42;100454.47;;;27.43;51.64
58471;BME280;44258;51.288;12.068;2023-08-24T10:57:38;100456.78;;;26.65;52.81
58471;BME280;44258;51.288;12.068;2023-08-24T11:00:29;100448.91;;;27.22;52.65
58471;BME280;44258;51.288;12.068;2023-08-24T11:03:30;100448.34;;;27.48;51.83
58471;BME280;44258;51.288;12.068;2023-08-24T11:06:18;100448.34;;;27.63;52.18
58471;BME280;44258;51.288;12.068;2023-08-24T11:09:10;100446.75;;;27.75;50.57
58471;BME280;44258;51.288;12.068;2023-08-24T11:12:02;100438.88;;;27.36;51.13
58471;BME280;44258;51.288;12.068;2023-08-24T11:14:51;100430.56;;;27.72;51.86
58471;BME280;44258;51.288;12.068;2023-08-24T11:17:41;100424.00;;;27.95;50.80
58471;BME280;44258;51.288;12.068;2023-08-24T11:20:28;100429.69;;;27.86;51.90
58471;BME280;44258;51.288;12.068;2023-08-24T11:23:16;100430.28;;;28.03;50.70
58471;BME280;44258;51.288;12.068;2023-08-24T11:26:05;100425.00;;;28.08;50.22
58471;BME280;44258;51.288;12.068;2023-08-24T11:28:53;100422.84;;;28.04;49.88
58471;BME280;44258;51.288;12.068;2023-08-24T11:31:40;100421.00;;;27.89;49.85
58471;BME280;44258;51.288;12.068;2023-08-24T11:34:29;100427.97;;;27.85;49.86
58471;BME280;44258;51.288;12.068;2023-08-24T11:37:18;100431.22;;;27.89;49.64
58471;BME280;44258;51.288;12.068;2023-08-24T11:40:07;100432.66;;;27.85;49.63
58471;BME280;44258;51.288;12.068;2023-08-24T11:43:03;100444.91;;;27.97;50.04
58471;BME280;44258;51.288;12.068;2023-08-24T11:45:50;100440.66;;;28.23;49.71
58471;BME280;44258;51.288;12.068;2023-08-24T11:48:37;100442.00;;;28.55;49.56
58471;BME280;44258;51.288;12.068;2023-08-24T11:51:26;100443.25;;;28.81;49.68
58471;BME280;44258;51.288;12.068;2023-08-24T11:54:13;100443.31;;;28.59;50.24
58471;BME280;44258;51.288;12.068;2023-08-24T11:57:00;100437.88;;;28.73;50.54
58471;BME280;44258;51.288;12.068;2023-08-24T11:59:47;100445.72;;;28.97;50.46
58471;BME280;44258;51.288;12.068;2023-08-24T12:02:34;100439.19;;;29.18;49.77
58471;BME280;44258;51.288;12.068;2023-08-24T12:05:23;100440.22;;;29.11;48.92
58471;BME280;44258;51.288;12.068;2023-08-24T12:08:12;100436.97;;;29.00;49.09
58471;BME280;44258;51.288;12.068;2023-08-24T12:10:59;100431.34;;;29.28;48.29
58471;BME280;44258;51.288;12.068;2023-08-24T12:13:48;100436.09;;;29.41;48.01
58471;BME280;44258;51.288;12.068;2023-08-24T12:16:35;100429.13;;;29.52;49.48
58471;BME280;44258;51.288;12.068;2023-08-24T12:19:22;100422.13;;;29.56;49.14
58471;BME280;44258;51.288;12.068;2023-08-24T12:22:13;100417.56;;;29.48;48.29
58471;BME280;44258;51.288;12.068;2023-08-24T12:25:01;100418.69;;;29.54;48.11
58471;BME280;44258;51.288;12.068;2023-08-24T12:27:50;100423.97;;;29.49;47.62
58471;BME280;44258;51.288;12.068;2023-08-24T12:30:44;100402.72;;;29.63;47.78
58471;BME280;44258;51.288;12.068;2023-08-24T12:33:31;100409.59;;;29.80;48.28
58471;BME280;44258;51.288;12.068;2023-08-24T12:36:18;100392.72;;;29.75;47.28
58471;BME280;44258;51.288;12.068;2023-08-24T12:39:05;100382.88;;;29.66;47.77
58471;BME280;44258;51.288;12.068;2023-08-24T12:41:54;100382.25;;;29.64;47.78
58471;BME280;44258;51.288;12.068;2023-08-24T12:44:41;100368.81;;;29.61;46.12
58471;BME280;44258;51.288;12.068;2023-08-24T12:47:28;100362.84;;;29.57;47.45
58471;BME280;44258;51.288;12.068;2023-08-24T12:50:15;100362.56;;;28.84;46.86
58471;BME280;44258;51.288;12.068;2023-08-24T12:53:02;100363.59;;;29.31;46.35
58471;BME280;44258;51.288;12.068;2023-08-24T12:55:52;100350.91;;;29.50;45.67
58471;BME280;44258;51.288;12.068;2023-08-24T12:58:40;100349.28;;;29.07;45.86
58471;BME280;44258;51.288;12.068;2023-08-24T13:01:27;100347.47;;;29.48;45.00
58471;BME280;44258;51.288;12.068;2023-08-24T13:04:14;100341.72;;;29.49;44.90
58471;BME280;44258;51.288;12.068;2023-08-24T13:07:02;100340.47;;;29.59;46.58
58471;BME280;44258;51.288;12.068;2023-08-24T13:09:49;100336.84;;;29.58;44.13
58471;BME280;44258;51.288;12.068;2023-08-24T13:12:36;100334.72;;;29.60;44.03
58471;BME280;44258;51.288;12.068;2023-08-24T13:15:25;100324.94;;;29.64;43.33
58471;BME280;44258;51.288;12.068;2023-08-24T13:18:12;100319.78;;;29.61;43.38
58471;BME280;44258;51.288;12.068;2023-08-24T13:20:58;100317.66;;;29.50;43.49
58471;BME280;44258;51.288;12.068;2023-08-24T13:23:46;100319.31;;;29.44;43.71
58471;BME280;44258;51.288;12.068;2023-08-24T13:26:33;100303.81;;;29.70;42.80
58471;BME280;44258;51.288;12.068;2023-08-24T13:29:20;100303.97;;;29.42;41.90
58471;BME280;44258;51.288;12.068;2023-08-24T13:32:08;100296.16;;;29.72;42.96
58471;BME280;44258;51.288;12.068;2023-08-24T13:34:55;100302.31;;;29.81;42.04
58471;BME280;44258;51.288;12.068;2023-08-24T13:37:42;100291.66;;;29.84;42.47
58471;BME280;44258;51.288;12.068;2023-08-24T13:40:29;100295.69;;;29.95;41.90
58471;BME280;44258;51.288;12.068;2023-08-24T13:43:16;100298.50;;;29.88;42.06
58471;BME280;44258;51.288;12.068;2023-08-24T13:46:05;100295.00;;;29.33;42.98
58471;BME280;44258;51.288;12.068;2023-08-24T13:48:53;100284.00;;;29.66;42.39
58471;BME280;44258;51.288;12.068;2023-08-24T13:51:41;100276.09;;;29.57;42.66
58471;BME280;44258;51.288;12.068;2023-08-24T13:54:31;100265.41;;;29.40;41.99
58471;BME280;44258;51.288;12.068;2023-08-24T13:57:17;100264.53;;;29.33;42.66
58471;BME280;44258;51.288;12.068;2023-08-24T14:00:06;100259.63;;;29.28;42.93
58471;BME280;44258;51.288;12.068;2023-08-24T14:02:57;100251.56;;;29.34;42.41
58471;BME280;44258;51.288;12.068;2023-08-24T14:05:45;100245.59;;;29.30;43.42
58471;BME280;44258;51.288;12.068;2023-08-24T14:08:35;100246.06;;;28.30;43.90
58471;BME280;44258;51.288;12.068;2023-08-24T14:11:22;100240.00;;;29.03;43.55
58471;BME280;44258;51.288;12.068;2023-08-24T14:14:09;100234.31;;;29.32;43.04
58471;BME280;44258;51.288;12.068;2023-08-24T14:16:57;100235.78;;;29.47;42.55
58471;BME280;44258;51.288;12.068;2023-08-24T14:19:43;100238.59;;;29.54;42.95
58471;BME280;44258;51.288;12.068;2023-08-24T14:22:32;100234.53;;;29.50;42.75
58471;BME280;44258;51.288;12.068;2023-08-24T14:25:19;100233.88;;;29.48;42.23
58471;BME280;44258;51.288;12.068;2023-08-24T14:28:06;100240.25;;;29.48;42.62